Latest Weather Observations for Keith West

IDS60801

Issued at 9:31 pm CST Friday 27 May 2016 (issued every 30 minutes, with the page automatically refreshed every 10 minutes)

About weather observations | Map of weather stations | Latest weather observations for SA | Other Formats
Station Details ID: 025557 Name: MUNKORA Lat: -36.11 Lon: 140.33 Height: 27.0 m
Data from the previous 72 hours. | See also: Recent months at Keith West
Date/Time
CST
Temp
°C
App
Temp
°C
Dew
Point
Rel
Hum
%
Delta-T
°C
Wind Press
QNH
hPa
Press
MSL
hPa
Rain
since 9 am
mm
Dir
 
Spd
km/h
Gust
km/h
Spd
kts
Gust
kts
27/09:30pm 8.7 6.9 7.3 91 0.7 NW 6 7 3 4 1007.0 1007.0 10.2
27/09:00pm 9.2 7.0 7.8 91 0.7 NNW 9 13 5 7 1006.7 1006.7 10.2
27/08:30pm 9.3 7.1 7.9 91 0.7 N 9 11 5 6 1006.4 1006.4 10.2
27/08:00pm 9.5 7.7 8.1 91 0.7 NW 7 9 4 5 1006.5 1006.5 10.2
27/07:30pm 9.7 6.8 8.1 90 0.8 NNW 13 17 7 9 1006.2 1006.2 10.2
27/07:00pm 9.7 7.1 7.8 88 0.9 NNW 11 13 6 7 1006.0 1006.0 10.2
27/06:30pm 9.8 7.6 7.9 88 0.9 NNW 9 13 5 7 1005.7 1005.7 9.8
27/06:00pm 9.8 6.8 7.7 87 1.0 NW 13 17 7 9 1005.5 1005.5 9.8
27/05:30pm 10.0 6.8 8.4 90 0.8 NW 15 20 8 11 1005.4 1005.4 9.6
27/05:00pm 10.4 6.7 7.8 84 1.3 NW 17 24 9 13 1005.2 1005.2 8.8
27/04:30pm 10.8 6.8 9.1 89 0.8 WNW 20 26 11 14 1005.0 1005.0 8.6
27/04:00pm 10.4 6.3 8.8 90 0.8 N 20 26 11 14 1004.8 1004.8 8.2
27/03:30pm 11.4 8.0 9.3 87 1.1 N 17 26 9 14 1004.6 1004.6 8.0
27/03:00pm 11.3 8.7 9.2 87 1.1 NNE 13 17 7 9 1004.4 1004.4 8.0
27/02:30pm 11.2 10.6 8.9 86 1.1 SSW 2 4 1 2 1004.3 1004.3 8.0
27/02:00pm 12.6 10.0 9.2 80 1.7 S 13 22 7 12 1004.2 1004.2 6.2
27/01:30pm 13.5 12.0 10.5 82 1.6 WNW 9 13 5 7 1004.3 1004.3 6.2
27/01:00pm 13.2 10.5 10.4 83 1.5 WNW 15 20 8 11 1004.7 1004.7 6.2
27/12:30pm 12.8 8.8 10.5 86 1.2 WNW 22 32 12 17 1005.0 1005.0 5.4
27/12:00pm 14.1 10.9 11.8 86 1.2 NNW 20 28 11 15 1005.0 1005.0 2.6
27/11:30am 13.9 10.5 11.2 84 1.4 NNW 20 26 11 14 1005.5 1005.5 2.6
27/11:00am 12.7 8.4 10.8 88 1.0 N 24 30 13 16 1006.1 1006.1 2.6
27/10:30am 12.4 8.0 10.5 88 1.0 N 24 30 13 16 1006.5 1006.5 2.6
27/10:00am 11.7 8.3 10.4 92 0.7 N 19 24 10 13 1006.6 1006.6 2.6
27/09:30am 10.3 6.5 9.2 93 0.5 N 19 24 10 13 1007.1 1007.1 2.2
27/09:00am 10.4 6.6 9.2 92 0.6 N 19 24 10 13 1007.8 1007.8 2.2
27/08:30am 10.2 7.1 9.0 92 0.6 N 15 17 8 9 1007.9 1007.9 1.6
27/08:00am 9.6 7.2 8.5 93 0.5 N 11 17 6 9 1007.8 1007.8 0.4
27/07:30am 8.8 5.8 7.9 94 0.4 NNE 13 15 7 8 1007.9 1007.9 0.2
27/07:00am 7.9 5.5 7.0 94 0.4 NNE 9 13 5 7 1008.0 1008.0 0.2
27/06:30am 7.6 5.1 6.7 94 0.4 NNE 9 11 5 6 1008.2 1008.2 0.2
27/06:00am 7.4 4.9 6.5 94 0.4 N 9 11 5 6 1008.3 1008.3 0.2
27/05:30am 7.3 4.8 6.4 94 0.4 N 9 11 5 6 1008.6 1008.6 0.2
27/05:00am 7.6 4.7 6.7 94 0.4 N 11 13 6 7 1008.9 1008.9 0.2
27/04:30am 7.0 4.4 6.1 94 0.4 N 9 11 5 6 1008.9 1008.9 0.2
27/04:00am 6.7 4.4 5.8 94 0.4 N 7 7 4 4 1009.0 1009.0 0.2
27/03:30am 6.5 3.8 5.6 94 0.4 N 9 9 5 5 1009.0 1009.0 0.2
27/03:00am 6.8 4.2 5.9 94 0.4 N 9 9 5 5 1009.2 1009.2 0.2
27/02:30am 7.0 4.4 5.9 93 0.5 N 9 9 5 5 1009.6 1009.6 0.2
27/02:00am 7.3 5.7 6.2 93 0.5 NNE 4 6 2 3 1009.7 1009.7 0.2
27/01:30am 8.4 7.4 7.5 94 0.4 NW 2 6 1 3 1009.8 1009.8 0.2
27/01:00am 7.8 5.9 6.7 93 0.5 N 6 7 3 4 1010.0 1010.0 0.2
27/12:30am 7.5 5.3 6.4 93 0.5 N 7 7 4 4 1010.1 1010.1 0.2
27/12:00am 8.0 6.0 6.9 93 0.5 N 7 9 4 5 1010.3 1010.3 0.2
 
Date/Time
CST
Temp
°C
App
Temp
°C
Dew
Point
Rel
Hum
%
Delta-T
°C
Wind Press
QNH
hPa
Press
MSL
hPa
Rain
since 9 am
mm
Dir
 
Spd
km/h
Gust
km/h
Spd
kts
Gust
kts
26/11:30pm 8.6 6.7 7.4 92 0.6 N 7 7 4 4 1010.5 1010.5 0.2
26/11:00pm 9.4 7.7 8.3 93 0.5 N 7 9 4 5 1010.5 1010.5 0.2
26/10:30pm 8.7 7.4 7.5 92 0.6 WNW 4 6 2 3 1010.7 1010.7 0.2
26/10:00pm 8.7 7.3 7.3 91 0.7 WSW 4 6 2 3 1010.8 1010.8 0.2
26/09:30pm 9.5 7.7 8.1 91 0.7 NW 7 7 4 4 1010.9 1010.9 0.2
26/09:00pm 9.6 7.9 8.2 91 0.7 NW 7 9 4 5 1010.8 1010.8 0.2
26/08:30pm 9.3 7.5 7.9 91 0.7 NW 7 9 4 5 1010.8 1010.8 0.2
26/08:00pm 8.8 7.0 7.1 89 0.8 WNW 6 7 3 4 1010.6 1010.6 0.2
26/07:30pm 9.4 7.4 7.3 87 1.0 W 7 9 4 5 1010.2 1010.2 0.2
26/07:00pm 10.6 8.5 8.2 85 1.2 WSW 9 13 5 7 1010.1 1010.1 0.2
26/06:30pm 10.4 8.2 8.0 85 1.2 WNW 9 9 5 5 1010.0 1010.0 0.2
26/06:00pm 10.3 8.4 7.5 83 1.3 WNW 7 9 4 5 1009.8 1009.8 0.2
26/05:30pm 11.5 9.1 7.2 75 2.1 WSW 9 11 5 6 1009.4 1009.4 0.2
26/05:00pm 12.8 10.2 7.9 72 2.4 WSW 11 15 6 8 1008.9 1008.9 0.2
26/04:30pm 14.5 10.6 7.1 61 3.6 SW 17 24 9 13 1008.5 1008.5 0.2
26/04:00pm 15.0 11.1 7.1 59 3.9 SW 17 22 9 12 1008.5 1008.5 0.2
26/03:30pm 16.0 11.3 5.9 51 4.9 SW 20 32 11 17 1008.1 1008.1 0.2
26/03:00pm 15.6 10.6 6.6 55 4.4 SW 22 28 12 15 1007.9 1007.9 0.2
26/02:30pm 16.1 11.5 6.5 53 4.7 WSW 20 28 11 15 1007.7 1007.7 0.2
26/02:00pm 16.6 11.7 6.7 52 4.9 WSW 22 33 12 18 1007.6 1007.6 0.2
26/01:30pm 16.0 10.8 5.6 50 5.0 SW 22 30 12 16 1007.7 1007.7 0.2
26/01:00pm 16.1 10.9 5.7 50 5.0 WSW 22 32 12 17 1007.7 1007.7 0.0
26/12:30pm 16.3 12.2 7.8 57 4.3 WSW 19 30 10 16 1007.7 1007.7 0.0
26/12:00pm 14.9 10.8 7.7 62 3.6 SW 19 26 10 14 1007.8 1007.8 0.0
26/11:30am 14.7 10.5 8.4 66 3.2 SSW 20 30 11 16 1008.0 1008.0 0.0
26/11:00am 14.1 10.1 8.3 68 2.9 SW 19 24 10 13 1008.2 1008.2 0.0
26/10:30am 15.3 11.7 8.5 64 3.5 SW 17 24 9 13 1008.3 1008.3 0.0
26/10:00am 14.5 11.4 8.9 69 2.8 SW 15 19 8 10 1008.1 1008.1 0.0
26/09:30am 13.8 11.4 8.8 72 2.5 SW 11 17 6 9 1007.9 1007.9 0.0
26/09:00am 12.6 10.2 8.7 77 2.0 SW 11 13 6 7 1007.9 1007.9 3.4
26/08:30am 11.5 9.9 8.7 83 1.4 WSW 7 11 4 6 1008.0 1008.0 3.4
26/08:00am 10.5 8.5 8.6 88 0.9 WSW 9 13 5 7 1007.7 1007.7 3.4
26/07:30am 9.7 8.0 8.3 91 0.7 WSW 7 9 4 5 1007.4 1007.4 3.4
26/07:00am 10.2 8.2 8.8 91 0.7 W 9 9 5 5 1007.0 1007.0 3.4
26/06:30am 10.7 9.3 9.5 92 0.6 W 7 9 4 5 1006.7 1006.7 3.4
26/06:00am 10.9 9.7 9.5 91 0.7 WSW 6 6 3 3 1006.3 1006.3 3.4
26/05:30am 11.2 9.9 10.0 92 0.6 WSW 7 9 4 5 1006.2 1006.2 3.4
26/05:00am 11.2 9.9 10.1 93 0.6 WSW 7 9 4 5 1006.2 1006.2 3.4
26/04:30am 11.2 9.6 10.1 93 0.6 W 9 11 5 6 1006.0 1006.0 3.4
26/04:00am 10.9 9.5 9.7 92 0.6 W 7 9 4 5 1005.8 1005.8 3.4
26/03:30am 11.4 10.7 10.1 92 0.7 WSW 4 6 2 3 1005.4 1005.4 3.4
26/03:00am 11.6 10.4 10.3 92 0.7 W 7 7 4 4 1005.7 1005.7 3.4
26/02:30am 11.8 10.7 10.5 92 0.7 WSW 7 7 4 4 1005.8 1005.8 3.4
26/02:00am 12.2 11.7 10.9 92 0.7 WSW 4 6 2 3 1005.7 1005.7 3.4
26/01:30am 12.5 11.7 11.1 91 0.7 SW 6 9 3 5 1005.5 1005.5 3.4
26/01:00am 12.8 11.9 11.4 91 0.7 SSW 7 13 4 7 1005.4 1005.4 3.4
26/12:30am 13.3 11.8 11.9 91 0.8 W 11 15 6 8 1005.8 1005.8 3.4
26/12:00am 13.3 11.8 11.9 91 0.8 NW 11 17 6 9 1005.8 1005.8 3.4
 
Date/Time
CST
Temp
°C
App
Temp
°C
Dew
Point
Rel
Hum
%
Delta-T
°C
Wind Press
QNH
hPa
Press
MSL
hPa
Rain
since 9 am
mm
Dir
 
Spd
km/h
Gust
km/h
Spd
kts
Gust
kts
25/11:30pm 13.3 11.0 11.7 90 0.9 NW 15 20 8 11 1005.7 1005.7 3.4
25/11:00pm 13.3 10.9 11.5 89 1.0 NW 15 20 8 11 1005.9 1005.9 3.4
25/10:30pm 13.1 10.7 11.3 89 1.0 NNW 15 19 8 10 1005.9 1005.9 3.4
25/10:00pm 12.9 10.5 11.3 90 0.8 NNW 15 20 8 11 1006.2 1006.2 3.4
25/09:30pm 12.7 9.8 11.1 90 0.8 NNW 17 20 9 11 1006.3 1006.3 3.4
25/09:00pm 12.6 10.1 11.0 90 0.8 N 15 19 8 10 1006.2 1006.2 3.4
25/08:30pm 12.6 9.3 11.0 90 0.8 N 19 26 10 14 1006.5 1006.5 3.4
25/08:00pm 12.4 9.8 10.6 89 0.9 N 15 19 8 10 1006.6 1006.6 3.4
25/07:30pm 12.2 8.8 10.4 89 0.9 N 19 26 10 14 1006.7 1006.7 3.4
25/07:00pm 12.0 8.9 10.4 90 0.8 N 17 22 9 12 1006.8 1006.8 3.4
25/06:30pm 11.8 8.7 10.2 90 0.8 N 17 22 9 12 1006.7 1006.7 3.4
25/06:00pm 11.8 8.7 10.2 90 0.8 N 17 24 9 13 1006.9 1006.9 3.4
25/05:30pm 11.9 8.4 10.3 90 0.8 N 19 26 10 14 1006.9 1006.9 3.2
25/05:00pm 11.9 8.8 10.3 90 0.8 N 17 22 9 12 1007.0 1007.0 2.8
25/04:30pm 12.1 9.0 10.3 89 0.9 N 17 20 9 11 1007.2 1007.2 2.6
25/04:00pm 12.2 9.1 10.4 89 0.9 N 17 22 9 12 1007.3 1007.3 2.6
25/03:30pm 11.9 8.9 10.5 91 0.7 N 17 24 9 13 1007.0 1007.0 2.6
25/03:00pm 11.8 8.6 10.0 89 0.9 N 17 22 9 12 1007.1 1007.1 2.2
25/02:30pm 12.0 8.4 9.9 87 1.1 N 19 24 10 13 1007.2 1007.2 2.0
25/02:00pm 11.9 7.3 9.8 87 1.1 N 24 33 13 18 1007.3 1007.3 2.0
25/01:30pm 12.0 7.5 10.1 88 1.0 N 24 33 13 18 1007.7 1007.7 2.0
25/01:00pm 11.5 6.6 9.8 89 0.9 N 26 32 14 17 1008.6 1008.6 2.0
25/12:30pm 11.2 5.4 9.3 88 1.0 N 30 37 16 20 1009.5 1009.5 1.4
25/12:00pm 11.3 5.4 9.0 86 1.1 N 30 39 16 21 1009.6 1009.6 1.4
25/11:30am 11.7 6.2 9.1 84 1.3 N 28 35 15 19 1010.4 1010.4 1.4
25/11:00am 11.1 5.5 8.7 85 1.2 N 28 35 15 19 1010.9 1010.9 1.4
25/10:30am 11.0 6.1 8.4 84 1.3 N 24 35 13 19 1011.5 1011.5 1.2
25/10:00am 11.1 5.0 8.3 83 1.4 N 30 43 16 23 1011.8 1011.8 0.8
25/09:30am 10.8 6.2 8.2 84 1.3 N 22 32 12 17 1011.9 1011.9 0.4
25/09:00am 10.8 5.8 8.2 84 1.3 N 24 32 13 17 1012.0 1012.0 1.0
25/08:30am 10.6 5.9 7.8 83 1.4 N 22 32 12 17 1011.9 1011.9 1.0
25/08:00am 10.6 6.3 7.1 79 1.7 N 19 24 10 13 1012.2 1012.2 0.8
25/07:30am 10.8 5.8 6.6 75 2.0 N 22 28 12 15 1012.3 1012.3 0.6
25/07:00am 11.4 6.8 5.7 68 2.6 N 19 30 10 16 1012.4 1012.4 0.2
25/06:30am 12.4 7.5 4.1 57 3.7 N 19 24 10 13 1012.7 1012.7 0.2
25/06:00am 12.5 7.8 3.2 53 4.1 NNW 17 22 9 12 1012.8 1012.8 0.2
25/05:30am 13.2 8.0 2.4 48 4.7 N 19 24 10 13 1012.2 1012.2 0.2
25/05:00am 13.1 7.3 2.4 48 4.7 N 22 28 12 15 1012.0 1012.0 0.2
25/04:30am 13.8 7.5 1.8 44 5.2 N 24 32 13 17 1012.4 1012.4 0.2
25/04:00am 13.3 7.5 2.5 48 4.7 N 22 28 12 15 1012.8 1012.8 0.2
25/03:30am 12.9 7.1 2.5 49 4.6 N 22 28 12 15 1012.7 1012.7 0.2
25/03:00am 13.0 7.8 2.3 48 4.7 N 19 24 10 13 1013.1 1013.1 0.2
25/02:30am 12.8 7.6 2.6 50 4.5 N 19 24 10 13 1013.3 1013.3 0.2
25/02:00am 12.9 8.2 3.3 52 4.3 N 17 20 9 11 1013.8 1013.8 0.2
25/01:30am 12.6 8.5 4.1 56 3.8 NNE 15 19 8 10 1013.8 1013.8 0.2
25/01:00am 12.7 7.9 4.4 57 3.8 NNE 19 22 10 12 1014.0 1014.0 0.2
25/12:30am 12.7 8.3 4.9 59 3.6 NNE 17 24 9 13 1014.5 1014.5 0.2
25/12:00am 12.6 7.8 4.8 59 3.6 NNE 19 28 10 15 1014.8 1014.8 0.2
 
Date/Time
CST
Temp
°C
App
Temp
°C
Dew
Point
Rel
Hum
%
Delta-T
°C
Wind Press
QNH
hPa
Press
MSL
hPa
Rain
since 9 am
mm
Dir
 
Spd
km/h
Gust
km/h
Spd
kts
Gust
kts
24/11:30pm 12.5 8.2 5.2 61 3.4 NNE 17 20 9 11 1015.6 1015.6 0.2
24/11:00pm 12.4 8.1 5.3 62 3.3 NNE 17 22 9 12 1015.9 1015.9 0.2
24/10:30pm 12.7 8.4 5.4 61 3.4 NNE 17 22 9 12 1016.2 1016.2 0.2
24/10:00pm 12.2 8.8 5.8 65 3.0 NNE 13 19 7 10 1016.6 1016.6 0.2

Other Formats:

Comma delimited format used in spreadsheet applications
http://www.bom.gov.au/fwo/IDS60801/IDS60801.95815.axf

JavaScript Object Notation format (JSON) in row-major order
http://www.bom.gov.au/fwo/IDS60801/IDS60801.95815.json